createdAt,value
2018-04-15T00:01:24.072Z,48.67
2018-04-15T00:03:50.907Z,63.47
2018-04-15T00:06:17.757Z,69.05
2018-04-15T00:08:45.390Z,60.88
2018-04-15T00:11:12.155Z,65.05
2018-04-15T00:13:39.001Z,64.70
2018-04-15T00:16:05.839Z,63.70
2018-04-15T00:18:32.687Z,64.97
2018-04-15T00:20:59.502Z,59.63
2018-04-15T00:23:26.269Z,68.43
2018-04-15T00:25:53.214Z,56.15
2018-04-15T00:28:20.057Z,65.37
2018-04-15T00:30:47.226Z,62.38
2018-04-15T00:33:14.049Z,64.72
2018-04-15T00:35:40.991Z,61.80
2018-04-15T00:38:08.347Z,62.42
2018-04-15T00:40:35.196Z,66.00
2018-04-15T00:43:01.869Z,57.08
2018-04-15T00:45:30.103Z,59.05
2018-04-15T00:47:56.945Z,64.37
2018-04-15T00:50:23.886Z,64.05
2018-04-15T00:52:50.728Z,64.68
2018-04-15T00:55:17.570Z,73.70
2018-04-15T00:57:44.325Z,74.50
2018-04-15T01:00:11.972Z,71.10
2018-04-15T01:02:38.818Z,73.47
2018-04-15T01:05:05.661Z,78.35
2018-04-15T01:07:32.366Z,69.00
2018-04-15T01:09:59.119Z,71.57
2018-04-15T01:12:26.187Z,75.12
2018-04-15T01:14:53.848Z,79.72
2018-04-15T01:17:20.547Z,79.70
2018-04-15T01:19:47.534Z,72.30
2018-04-15T01:22:14.377Z,77.07
2018-04-15T01:24:41.319Z,79.12
2018-04-15T01:27:08.052Z,77.67
2018-04-15T01:29:34.899Z,81.15
2018-04-15T01:32:01.746Z,85.60
2018-04-15T01:34:28.485Z,79.32
2018-04-15T01:36:55.634Z,81.67
2018-04-15T01:39:22.477Z,86.78
2018-04-15T01:41:49.137Z,78.60
2018-04-15T01:44:15.952Z,87.63
2018-04-15T01:46:42.691Z,87.53
2018-04-15T01:49:09.538Z,92.70
2018-04-15T01:51:36.380Z,90.50
2018-04-15T01:54:03.224Z,87.73
2018-04-15T01:56:29.935Z,90.70
2018-04-15T01:58:56.705Z,84.87
2018-04-15T02:01:23.374Z,92.77
2018-04-15T02:03:50.286Z,84.23
2018-04-15T02:06:17.331Z,86.60
2018-04-15T02:08:44.073Z,90.57
2018-04-15T02:11:10.701Z,90.87
2018-04-15T02:13:37.554Z,89.53
2018-04-15T02:16:04.396Z,94.60
2018-04-15T02:18:31.072Z,87.10
2018-04-15T02:20:57.873Z,85.73
2018-04-15T02:23:24.697Z,82.73
2018-04-15T02:25:51.325Z,86.37
2018-04-15T02:28:18.692Z,81.87
2018-04-15T02:30:45.552Z,85.90
2018-04-15T02:33:12.394Z,84.60
2018-04-15T02:35:39.236Z,92.37
2018-04-15T02:38:06.282Z,84.20
2018-04-15T02:40:33.125Z,81.93
2018-04-15T02:43:00.069Z,83.77
2018-04-15T02:45:26.910Z,88.50
2018-04-15T02:47:53.530Z,83.07
2018-04-15T02:50:20.285Z,84.00
2018-04-15T02:52:47.234Z,86.67
2018-04-15T02:55:13.974Z,92.63
2018-04-15T02:57:40.709Z,83.60
2018-04-15T03:00:07.559Z,91.97
2018-04-15T03:02:34.401Z,88.53
2018-04-15T03:05:01.134Z,77.20
2018-04-15T03:07:28.082Z,84.87
2018-04-15T03:09:56.246Z,77.37
2018-04-15T03:12:22.995Z,83.23
2018-04-15T03:14:49.839Z,84.67
2018-04-15T03:17:16.574Z,87.23
2018-04-15T03:19:43.523Z,82.53
2018-04-15T03:22:10.258Z,81.60
2018-04-15T03:24:37.004Z,88.43
2018-04-15T03:27:04.356Z,76.43
2018-04-15T03:29:31.013Z,77.57
2018-04-15T03:31:57.835Z,84.13
2018-04-15T03:34:24.674Z,81.63
2018-04-15T03:36:51.520Z,76.70
2018-04-15T03:39:18.363Z,79.30
2018-04-15T03:41:45.207Z,76.10
2018-04-15T03:44:11.910Z,76.10
2018-04-15T03:46:39.396Z,74.50
2018-04-15T03:49:06.345Z,74.83
2018-04-15T03:51:33.086Z,73.60
2018-04-15T03:53:59.928Z,76.50
2018-04-15T03:56:26.873Z,73.90
2018-04-15T03:58:53.613Z,74.77
2018-04-15T04:01:20.355Z,71.47
2018-04-15T04:03:47.092Z,74.20
2018-04-15T04:06:14.177Z,85.50
2018-04-15T04:08:40.982Z,83.13
2018-04-15T04:11:07.710Z,72.23
2018-04-15T04:13:34.534Z,68.67
2018-04-15T04:16:01.227Z,75.60
2018-04-15T04:18:40.172Z,77.00
2018-04-15T04:21:19.156Z,71.03
2018-04-15T04:26:49.253Z,69.10
2018-04-15T04:29:16.751Z,73.50
2018-04-15T04:31:43.402Z,76.43
2018-04-15T04:34:10.232Z,75.13
2018-04-15T04:36:36.971Z,78.93
2018-04-15T04:39:03.814Z,76.13
2018-04-15T04:41:30.758Z,70.80
2018-04-15T04:43:57.600Z,84.10
2018-04-15T04:46:24.345Z,74.27
2018-04-15T04:48:51.078Z,71.63
2018-04-15T04:51:17.820Z,76.27
2018-04-15T04:53:44.480Z,74.23
2018-04-15T04:56:11.197Z,76.20
2018-04-15T04:58:38.036Z,75.90
2018-04-15T05:01:04.778Z,73.00
2018-04-15T05:03:31.515Z,75.03
2018-04-15T05:05:58.256Z,81.30
2018-04-15T05:08:25.001Z,74.73
2018-04-15T05:10:51.719Z,81.97
2018-04-15T05:13:18.479Z,81.03
2018-04-15T05:15:45.180Z,76.37
2018-04-15T05:18:12.671Z,80.10
2018-04-15T05:20:39.619Z,75.13
2018-04-15T05:23:06.334Z,78.67
2018-04-15T05:25:34.023Z,80.70
2018-04-15T05:28:00.764Z,76.97
2018-04-15T05:30:27.604Z,73.90
2018-04-15T05:32:54.343Z,71.23
2018-04-15T05:35:20.977Z,70.90
2018-04-15T05:37:48.130Z,72.17
2018-04-15T05:40:14.871Z,73.67
2018-04-15T05:42:41.713Z,76.03
2018-04-15T05:45:08.393Z,79.67
2018-04-15T05:47:35.193Z,72.93
2018-04-15T05:50:02.249Z,75.20
2018-04-15T05:52:29.082Z,81.77
2018-04-15T05:54:55.822Z,77.07
2018-04-15T05:57:22.869Z,71.37
2018-04-15T05:59:49.492Z,74.57
2018-04-15T06:02:16.247Z,62.80
2018-04-15T06:04:43.089Z,73.27
2018-04-15T06:07:09.748Z,73.87
2018-04-15T06:09:36.568Z,71.27
2018-04-15T06:12:03.714Z,71.33
2018-04-15T06:14:30.449Z,77.40
2018-04-15T06:16:57.198Z,74.73
2018-04-15T06:19:24.253Z,69.77
2018-04-15T06:21:50.985Z,74.30
2018-04-15T06:24:17.656Z,79.80
2018-04-15T06:26:44.775Z,71.13
2018-04-15T06:29:11.512Z,81.07
2018-04-15T06:31:38.222Z,76.03
2018-04-15T06:34:04.990Z,79.20
2018-04-15T06:36:31.731Z,76.00
2018-04-15T06:38:58.401Z,85.73
2018-04-15T06:41:25.076Z,84.40
2018-04-15T06:43:52.769Z,78.03
2018-04-15T06:46:19.509Z,83.17
2018-04-15T06:48:46.249Z,81.43
2018-04-15T06:51:13.086Z,81.73
2018-04-15T06:53:39.712Z,82.33
2018-04-15T06:56:06.669Z,80.17
2018-04-15T06:58:33.409Z,71.80
2018-04-15T07:01:00.044Z,82.93
2018-04-15T07:03:26.730Z,77.30
2018-04-15T07:05:54.246Z,79.73
2018-04-15T07:08:20.938Z,82.10
2018-04-15T07:10:47.724Z,78.13
2018-04-15T07:13:14.440Z,69.00
2018-04-15T07:15:41.926Z,78.73
2018-04-15T07:18:08.669Z,78.60
2018-04-15T07:20:35.609Z,77.10
2018-04-15T07:23:02.348Z,77.23
2018-04-15T07:25:29.087Z,84.10
2018-04-15T07:27:55.794Z,79.33
2018-04-15T07:30:23.237Z,84.33
2018-04-15T07:32:50.020Z,83.97
2018-04-15T07:35:16.760Z,81.87
2018-04-15T07:37:43.433Z,83.40
2018-04-15T07:40:10.078Z,81.03
2018-04-15T07:42:36.983Z,84.87
2018-04-15T07:45:03.885Z,86.37
2018-04-15T07:47:30.672Z,86.47
2018-04-15T07:49:57.339Z,82.20
2018-04-15T07:52:25.582Z,90.53
2018-04-15T07:54:52.322Z,86.53
2018-04-15T07:57:19.056Z,88.33
2018-04-15T07:59:45.904Z,92.67
2018-04-15T08:02:12.643Z,92.60
2018-04-15T08:04:39.345Z,108.67
2018-04-15T08:07:06.329Z,99.87
2018-04-15T08:09:33.065Z,93.80
2018-04-15T08:11:59.708Z,96.83
2018-04-15T08:14:26.340Z,95.50
2018-04-15T08:16:53.083Z,91.37
2018-04-15T08:19:19.827Z,93.67
2018-04-15T08:21:46.976Z,90.80
2018-04-15T08:24:13.600Z,89.77
2018-04-15T08:26:40.257Z,85.70
2018-04-15T08:29:06.987Z,82.23
2018-04-15T08:31:33.632Z,91.70
2018-04-15T08:34:00.275Z,90.30
2018-04-15T08:36:26.933Z,89.93
2018-04-15T08:38:53.629Z,91.57
2018-04-15T08:41:20.267Z,86.87
2018-04-15T08:43:47.017Z,84.60
2018-04-15T08:46:13.859Z,82.00
2018-04-15T08:48:40.492Z,80.43
2018-04-15T08:51:07.237Z,90.50
2018-04-15T08:53:33.974Z,95.93
2018-04-15T08:56:00.917Z,85.03
2018-04-15T08:58:27.662Z,83.70
2018-04-15T09:00:54.329Z,73.87
2018-04-15T09:03:21.858Z,76.60
2018-04-15T09:05:48.801Z,75.60
2018-04-15T09:08:15.544Z,72.70
2018-04-15T09:10:42.279Z,72.37
2018-04-15T09:13:09.021Z,71.80
2018-04-15T09:15:35.753Z,72.00
2018-04-15T09:18:02.705Z,72.17
2018-04-15T09:20:29.443Z,63.73
2018-04-15T09:22:56.134Z,66.20
2018-04-15T09:25:22.997Z,62.37
2018-04-15T09:27:50.484Z,70.43
2018-04-15T09:30:17.221Z,63.37
2018-04-15T09:32:44.373Z,66.60
2018-04-15T09:35:11.217Z,61.53
2018-04-15T09:37:37.916Z,55.20
2018-04-15T09:40:04.901Z,55.90
2018-04-15T09:42:31.637Z,58.90
2018-04-15T09:44:58.412Z,54.63
2018-04-15T09:47:25.536Z,53.07
2018-04-15T09:49:52.269Z,55.00
2018-04-15T09:52:19.114Z,49.93
2018-04-15T09:54:46.261Z,52.03
2018-04-15T09:57:12.996Z,48.40
2018-04-15T09:59:39.626Z,46.33
2018-04-15T10:02:06.448Z,44.33
2018-04-15T10:04:33.929Z,48.53
2018-04-15T10:07:00.677Z,45.67
2018-04-15T10:09:27.332Z,43.13
2018-04-15T10:11:54.232Z,47.13
2018-04-15T10:14:21.601Z,41.77
2018-04-15T10:16:48.456Z,45.27
2018-04-15T10:19:15.260Z,46.47
2018-04-15T10:21:42.749Z,44.70
2018-04-15T10:24:09.723Z,44.67
2018-04-15T10:26:36.440Z,46.77
2018-04-15T10:29:03.060Z,46.80
2018-04-15T10:31:30.636Z,44.70
2018-04-15T10:33:57.286Z,44.40
2018-04-15T10:36:24.113Z,42.77
2018-04-15T10:38:50.763Z,46.53
2018-04-15T10:41:17.701Z,43.27
2018-04-15T10:43:46.692Z,44.07
2018-04-15T10:46:13.406Z,48.20
2018-04-15T10:48:40.053Z,48.00
2018-04-15T10:51:07.426Z,45.80
2018-04-15T10:53:34.267Z,46.40
2018-04-15T10:56:00.897Z,48.53
2018-04-15T10:58:27.953Z,46.57
2018-04-15T11:00:54.789Z,47.07
2018-04-15T11:03:21.635Z,43.63
2018-04-15T11:05:49.612Z,46.37
2018-04-15T11:08:16.345Z,45.50
2018-04-15T11:10:43.058Z,36.33
2018-04-15T11:13:10.745Z,41.93
2018-04-15T11:15:37.485Z,43.87
2018-04-15T11:18:04.152Z,36.67
2018-04-15T11:20:30.966Z,35.70
2018-04-15T11:22:57.645Z,29.97
2018-04-15T11:25:24.445Z,30.83
2018-04-15T11:27:51.188Z,30.50
2018-04-15T11:30:17.856Z,28.67
2018-04-15T11:32:44.768Z,28.50
2018-04-15T11:35:11.442Z,29.43
2018-04-15T11:37:38.877Z,31.53
2018-04-15T11:40:05.559Z,25.53
2018-04-15T11:42:32.950Z,27.10
2018-04-15T11:44:59.646Z,27.67
2018-04-15T11:47:26.500Z,24.60
2018-04-15T11:49:53.953Z,26.20
2018-04-15T11:52:21.451Z,24.00
2018-04-15T11:54:48.186Z,25.07
2018-04-15T11:57:15.342Z,22.27
2018-04-15T11:59:42.080Z,18.30
2018-04-15T12:02:08.773Z,23.27
2018-04-15T12:04:35.764Z,23.43
2018-04-15T12:07:02.504Z,20.83
2018-04-15T12:09:29.347Z,20.00
2018-04-15T12:11:56.058Z,19.07
2018-04-15T12:14:23.456Z,20.70
2018-04-15T12:16:50.278Z,18.10
2018-04-15T12:19:16.945Z,17.37
2018-04-15T12:21:43.653Z,19.63
2018-04-15T12:24:10.401Z,18.67
2018-04-15T12:26:37.068Z,19.80
2018-04-15T12:29:03.711Z,15.33
2018-04-15T12:31:30.519Z,14.63
2018-04-15T12:33:57.372Z,17.40
2018-04-15T12:36:24.097Z,16.83
2018-04-15T12:38:50.840Z,15.63
2018-04-15T12:41:17.581Z,14.43
2018-04-15T12:43:44.424Z,17.83
2018-04-15T12:46:11.066Z,18.17
2018-04-15T12:48:37.903Z,15.23
2018-04-15T12:51:04.741Z,19.30
2018-04-15T12:53:31.698Z,14.97
2018-04-15T12:55:58.430Z,17.47
2018-04-15T12:58:25.089Z,15.90
2018-04-15T13:00:51.805Z,14.27
2018-04-15T13:03:18.851Z,14.17
2018-04-15T13:05:45.594Z,13.93
2018-04-15T13:08:12.334Z,14.53
2018-04-15T13:10:39.586Z,13.87
2018-04-15T13:13:06.434Z,13.50
2018-04-15T13:15:33.389Z,14.53
2018-04-15T13:18:00.080Z,11.30
2018-04-15T13:20:26.852Z,12.73
2018-04-15T13:22:53.560Z,13.37
2018-04-15T13:25:21.151Z,11.13
2018-04-15T13:27:47.891Z,12.93
2018-04-15T13:30:14.840Z,10.67
2018-04-15T13:32:41.571Z,17.00
2018-04-15T13:35:08.737Z,14.00
2018-04-15T13:37:35.466Z,12.50
2018-04-15T13:40:02.553Z,13.97
2018-04-15T13:42:29.354Z,14.07
2018-04-15T13:44:56.298Z,15.17
2018-04-15T13:47:23.213Z,14.83
2018-04-15T13:49:50.905Z,15.43
2018-04-15T13:52:17.618Z,16.23
2018-04-15T13:54:45.205Z,14.50
2018-04-15T13:57:11.945Z,15.67
2018-04-15T13:59:39.090Z,16.37
2018-04-15T14:02:05.831Z,14.57
2018-04-15T14:04:32.567Z,15.33
2018-04-15T14:06:59.308Z,14.73
2018-04-15T14:09:26.054Z,14.03
2018-04-15T14:11:52.786Z,14.37
2018-04-15T14:14:19.527Z,14.57
2018-04-15T14:16:46.375Z,16.20
2018-04-15T14:19:13.289Z,16.03
2018-04-15T14:21:40.771Z,16.33
2018-04-15T14:24:07.509Z,14.70
2018-04-15T14:26:34.170Z,13.03
2018-04-15T14:29:00.893Z,16.37
2018-04-15T14:31:27.573Z,14.80
2018-04-15T14:33:54.236Z,15.00
2018-04-15T14:36:21.846Z,14.93
2018-04-15T14:38:48.571Z,12.83
2018-04-15T14:41:15.306Z,13.53
2018-04-15T14:43:42.066Z,15.60
2018-04-15T14:46:08.726Z,14.60
2018-04-15T14:48:36.146Z,16.73
2018-04-15T14:51:03.089Z,17.93
2018-04-15T14:53:29.833Z,15.87
2018-04-15T14:55:56.448Z,17.03
2018-04-15T14:58:23.201Z,16.93
2018-04-15T15:00:50.151Z,18.20
2018-04-15T15:03:16.994Z,18.30
2018-04-15T15:05:43.836Z,19.03
2018-04-15T15:08:10.518Z,16.23
2018-04-15T15:10:37.311Z,18.83
2018-04-15T15:13:04.056Z,18.83
2018-04-15T15:15:30.694Z,17.83
2018-04-15T15:17:57.535Z,17.37
2018-04-15T15:20:24.110Z,16.57
2018-04-15T15:22:51.630Z,15.83
2018-04-15T15:25:18.284Z,17.53
2018-04-15T15:27:44.893Z,15.60
2018-04-15T15:30:11.474Z,17.07
2018-04-15T15:32:38.854Z,19.43
2018-04-15T15:35:05.534Z,16.80
2018-04-15T15:37:32.268Z,15.73
2018-04-15T15:39:58.852Z,18.33
2018-04-15T15:42:25.556Z,15.40
2018-04-15T15:44:52.388Z,18.47
2018-04-15T15:47:19.171Z,17.03
2018-04-15T15:49:46.471Z,17.13
2018-04-15T15:52:13.426Z,17.67
2018-04-15T15:54:40.175Z,18.00
2018-04-15T15:57:06.812Z,18.17
2018-04-15T15:59:33.546Z,18.57
2018-04-15T16:02:01.208Z,14.83
2018-04-15T16:04:27.814Z,16.47
2018-04-15T16:06:54.483Z,15.67
2018-04-15T16:09:21.064Z,14.90
2018-04-15T16:11:48.473Z,16.93
2018-04-15T16:14:15.215Z,16.97
2018-04-15T16:16:42.741Z,15.63
2018-04-15T16:19:09.410Z,14.87
2018-04-15T16:21:35.989Z,17.80
2018-04-15T16:24:02.678Z,15.37
2018-04-15T16:26:29.426Z,15.37
2018-04-15T16:28:56.060Z,16.33
2018-04-15T16:31:22.795Z,14.33
2018-04-15T16:33:49.440Z,15.17
2018-04-15T16:36:16.177Z,15.07
2018-04-15T16:38:43.023Z,15.50
2018-04-15T16:41:09.917Z,15.40
2018-04-15T16:43:36.574Z,15.90
2018-04-15T16:46:03.346Z,16.23
2018-04-15T16:48:29.984Z,14.43
2018-04-15T16:50:56.694Z,15.10
2018-04-15T16:53:23.357Z,15.03
2018-04-15T16:55:49.991Z,14.90
2018-04-15T16:58:16.556Z,14.27
2018-04-15T17:00:43.985Z,17.13
2018-04-15T17:03:10.823Z,16.37
2018-04-15T17:05:37.384Z,14.97
2018-04-15T17:08:04.107Z,16.30
2018-04-15T17:10:30.846Z,19.57
2018-04-15T17:12:57.790Z,16.93
2018-04-15T17:15:24.530Z,15.80
2018-04-15T17:17:51.266Z,18.20
2018-04-15T17:20:18.009Z,19.33
2018-04-15T17:22:44.746Z,19.43
2018-04-15T17:25:11.313Z,18.17
2018-04-15T17:27:38.677Z,19.20
2018-04-15T17:30:08.295Z,19.47
2018-04-15T17:32:34.958Z,19.30
2018-04-15T17:35:01.727Z,19.63
2018-04-15T17:37:28.465Z,20.53
2018-04-15T17:39:55.260Z,19.83
2018-04-15T17:42:21.917Z,17.37
2018-04-15T17:44:48.580Z,23.37
2018-04-15T17:47:15.165Z,18.60
2018-04-15T17:49:41.859Z,18.93
2018-04-15T17:52:08.601Z,18.60
2018-04-15T17:54:35.339Z,19.83
2018-04-15T17:57:01.904Z,21.40
2018-04-15T17:59:29.326Z,21.13
2018-04-15T18:01:56.021Z,21.57
2018-04-15T18:04:22.914Z,21.73
2018-04-15T18:06:49.549Z,20.83
2018-04-15T18:09:16.291Z,20.73
2018-04-15T18:11:43.952Z,22.33
2018-04-15T18:14:10.691Z,22.00
2018-04-15T18:16:37.534Z,18.97
2018-04-15T18:19:04.376Z,20.33
2018-04-15T18:21:31.172Z,26.60
2018-04-15T18:23:57.851Z,23.70
2018-04-15T18:26:24.698Z,23.90
2018-04-15T18:28:51.289Z,24.13
2018-04-15T18:31:17.864Z,20.50
2018-04-15T18:33:45.018Z,22.93
2018-04-15T18:36:11.581Z,21.63
2018-04-15T18:38:38.265Z,23.40
2018-04-15T18:41:05.036Z,22.87
2018-04-15T18:43:31.746Z,24.77
2018-04-15T18:45:58.382Z,23.73
2018-04-15T18:48:24.984Z,24.77
2018-04-15T18:50:52.509Z,25.80
2018-04-15T18:53:19.248Z,26.57
2018-04-15T18:55:46.096Z,22.53
2018-04-15T18:58:14.366Z,27.00
2018-04-15T19:00:41.096Z,26.87
2018-04-15T19:03:07.664Z,23.97
2018-04-15T19:05:34.266Z,27.73
2018-04-15T19:08:00.825Z,23.57
2018-04-15T19:10:27.656Z,27.33
2018-04-15T19:12:55.830Z,24.27
2018-04-15T19:15:22.671Z,26.33
2018-04-15T19:17:49.279Z,25.23
2018-04-15T19:20:16.049Z,27.30
2018-04-15T19:22:42.789Z,25.50
2018-04-15T19:25:09.428Z,26.13
2018-04-15T19:27:36.001Z,25.13
2018-04-15T19:30:03.472Z,26.33
2018-04-15T19:32:30.363Z,28.93
2018-04-15T19:34:56.933Z,26.10
2018-04-15T19:37:24.232Z,29.83
2018-04-15T19:39:50.885Z,33.87
2018-04-15T19:42:17.466Z,31.27
2018-04-15T19:44:44.579Z,29.57
2018-04-15T19:47:11.312Z,30.13
2018-04-15T19:49:38.161Z,33.27
2018-04-15T19:52:04.963Z,30.70
2018-04-15T19:54:31.632Z,32.13
2018-04-15T19:56:58.213Z,29.77
2018-04-15T19:59:25.831Z,28.17
2018-04-15T20:01:52.540Z,34.33
2018-04-15T20:04:19.273Z,28.27
2018-04-15T20:06:46.667Z,32.63
2018-04-15T20:09:13.406Z,30.57
2018-04-15T20:11:40.245Z,33.37
2018-04-15T20:14:07.007Z,28.53
2018-04-15T20:16:34.447Z,30.83
2018-04-15T20:19:01.187Z,30.53
2018-04-15T20:21:27.813Z,39.90
2018-04-15T20:23:54.497Z,39.30
2018-04-15T20:26:21.060Z,36.40
2018-04-15T20:28:47.735Z,33.63
2018-04-15T20:31:14.679Z,31.97
2018-04-15T20:33:41.421Z,31.97
2018-04-15T20:36:08.128Z,38.07
2018-04-15T20:38:34.902Z,33.47
2018-04-15T20:41:01.644Z,43.60
2018-04-15T20:43:28.394Z,37.60
2018-04-15T20:45:55.823Z,37.27
2018-04-15T20:48:22.437Z,41.23
2018-04-15T20:50:49.081Z,39.37
2018-04-15T20:53:15.852Z,34.53
2018-04-15T20:55:42.431Z,39.10
2018-04-15T20:58:09.090Z,35.23
2018-04-15T21:00:35.721Z,39.13
2018-04-15T21:03:02.522Z,38.00
2018-04-15T21:05:29.158Z,35.63
2018-04-15T21:07:55.850Z,36.77
2018-04-15T21:10:23.843Z,39.23
2018-04-15T21:12:50.489Z,37.33
2018-04-15T21:15:17.097Z,38.27
2018-04-15T21:17:44.169Z,40.10
2018-04-15T21:20:10.805Z,36.00
2018-04-15T21:22:37.410Z,39.43
2018-04-15T21:25:04.985Z,39.10
2018-04-15T21:27:31.651Z,38.43
2018-04-15T21:29:58.233Z,40.77
2018-04-15T21:32:24.829Z,40.43
2018-04-15T21:34:51.556Z,40.60
2018-04-15T21:37:18.172Z,46.77
2018-04-15T21:39:44.770Z,45.83
2018-04-15T21:42:11.673Z,46.53
2018-04-15T21:44:38.413Z,41.57
2018-04-15T21:47:05.152Z,44.17
2018-04-15T21:49:31.746Z,40.97
2018-04-15T21:51:58.431Z,39.63
2018-04-15T21:54:25.269Z,37.47
2018-04-15T21:56:52.316Z,41.30
2018-04-15T21:59:18.943Z,39.40
2018-04-15T22:01:45.591Z,40.13
2018-04-15T22:04:12.241Z,45.57
2018-04-15T22:06:38.966Z,44.97
2018-04-15T22:09:06.393Z,44.77
2018-04-15T22:11:45.537Z,47.47
2018-04-15T22:14:12.296Z,46.23
2018-04-15T22:16:39.037Z,47.43
2018-04-15T22:19:07.314Z,44.33
2018-04-15T22:21:33.952Z,45.60
2018-04-15T22:24:00.684Z,48.73
2018-04-15T22:26:27.535Z,47.53
2018-04-15T22:28:55.709Z,45.13
2018-04-15T22:31:22.651Z,46.43
2018-04-15T22:33:49.390Z,45.87
2018-04-15T22:36:16.130Z,42.33
2018-04-15T22:38:42.753Z,45.97
2018-04-15T22:41:09.509Z,45.37
2018-04-15T22:43:36.653Z,43.20
2018-04-15T22:46:03.259Z,47.23
2018-04-15T22:48:36.076Z,40.60
2018-04-15T22:51:04.247Z,43.33
2018-04-15T22:53:30.890Z,48.57
2018-04-15T22:55:57.733Z,46.50
2018-04-15T22:58:24.470Z,44.90
2018-04-15T23:00:51.414Z,44.07
2018-04-15T23:03:18.153Z,44.00
2018-04-15T23:05:44.800Z,50.67
2018-04-15T23:08:11.650Z,49.73
2018-04-15T23:10:38.476Z,53.03
2018-04-15T23:13:05.184Z,50.20
2018-04-15T23:15:32.878Z,42.90
2018-04-15T23:17:59.720Z,50.67
2018-04-15T23:20:26.562Z,48.27
2018-04-15T23:22:53.501Z,51.63
2018-04-15T23:25:20.146Z,48.03
2018-04-15T23:27:46.854Z,47.17
2018-04-15T23:30:14.274Z,50.07
2018-04-15T23:32:41.081Z,48.93
2018-04-15T23:35:08.025Z,39.57
2018-04-15T23:37:34.817Z,43.63
2018-04-15T23:40:02.321Z,39.93
2018-04-15T23:42:29.168Z,40.80
2018-04-15T23:44:56.017Z,44.77
2018-04-15T23:47:22.660Z,47.43
2018-04-15T23:49:49.490Z,50.00
2018-04-15T23:52:16.434Z,51.07
2018-04-15T23:54:43.245Z,45.70
2018-04-15T23:57:10.690Z,52.13
2018-04-15T23:59:38.285Z,54.37
